Nearby METAR Reports

 

KAUS - Austin, Texas, USA
Distance from station: WNW 16mi, 26km
Updated: Mon, 21-Oct-2019 2:53pm CDT
Few Clouds
Few Clouds
 Wind from N
Wind: N 14 mph , 22 km/h, Gust: 21 mph , 33 km/h
Temperature: 81°F , 27°C
Dew Point: 34°F , 1°C
Humidity: 18%
Barometer: 29.89 inHg , 1012.2 hPa
Clouds: Few Clouds
Visibility: 10 miles , 16 km
Cloud details: Few Clouds 25000 ft
2019/10/21 19:53 KAUS 211953Z 36012G18KT 10SM FEW250 27/01 A2989 RMK AO2 SLP109 T02670011
KEDC - Austin Exec, Texas, USA
Distance from station: NNW 21mi, 34km
Updated: Mon, 21-Oct-2019 3:35pm CDT
Clear
Clear
 Wind from N
Wind: N 10 mph , 17 km/h, Gust: 16 mph , 26 km/h
Temperature: 77°F , 25°C
Dew Point: 32°F , 0°C
Humidity: 19%
Barometer: 29.91 inHg , 1012.9 hPa
Clouds: Clear
Visibility: 10 miles , 16 km
2019/10/21 20:35 KEDC 212035Z AUTO 01009G14KT 10SM CLR 25/00 A2991 RMK AO2
 
KATT - Austin/Mabry, Texas, USA
Distance from station: NW 25mi, 39km
Updated: Mon, 21-Oct-2019 2:51pm CDT
Clear
Clear
 Wind from varies
Wind: varies 6 mph , 9 km/h
Temperature: 81°F , 27°C
Dew Point: 34°F , 1°C
Humidity: 18%
Barometer: 29.90 inHg , 1012.5 hPa
Clouds: Clear
Visibility: 10 miles , 16 km
2019/10/21 19:51 KATT 211951Z AUTO VRB05KT 10SM CLR 27/01 A2990 RMK AO2 SLP113 T02670006
KGYB - Giddings-Lee, Texas, USA
Distance from station: E 27mi, 43km
Updated: Mon, 21-Oct-2019 3:35pm CDT
Clear
Clear
 Wind from N
Wind: N 6 mph , 9 km/h
Temperature: 81°F , 27°C
Dew Point: 39°F , 4°C
Humidity: 23%
Barometer: 29.89 inHg , 1012.2 hPa
Clouds: Clear
Visibility: 10 miles , 16 km
2019/10/21 20:35 KGYB 212035Z AUTO 01005KT 10SM CLR 27/04 A2989 RMK AO2 T02710035
 
KHYI - San Marcos, Texas, USA
Distance from station: WSW 31mi, 49km
Updated: Mon, 21-Oct-2019 2:56pm CDT
Clear
Clear
 Wind from NE
Wind: NE 12 mph , 19 km/h, Gust: 17 mph , 28 km/h
Temperature: 81°F , 27°C
Dew Point: 37°F , 3°C
Humidity: 21%
Barometer: 29.90 inHg , 1012.5 hPa
Clouds: Clear
Visibility: 10 miles , 16 km
2019/10/21 19:56 KHYI 211956Z 04010G15KT 10SM CLR 27/03 A2990 RMK AO2 SLP114 T02670033
K3T5 - La Grange, Texas, USA
Distance from station: ESE 32mi, 52km
Updated: Mon, 21-Oct-2019 3:35pm CDT
Clear
Clear
 Wind from N
Wind: N 8 mph , 13 km/h
Temperature: 81°F , 27°C
Dew Point: 43°F , 6°C
Humidity: 26%
Barometer: 29.85 inHg , 1010.8 hPa
Clouds: Clear
Visibility: 10 miles , 16 km
2019/10/21 20:35 K3T5 212035Z AUTO 36007KT 330V040 10SM CLR 27/06 A2985 RMK AO2 T02720059
 
KT20 - Gonzales Muni, Texas, USA
Distance from station: S 41mi, 67km
Updated: Mon, 21-Oct-2019 3:35pm CDT
Clear
Clear
 Wind from N
Wind: N 8 mph , 13 km/h
Temperature: 81°F , 27°C
Dew Point: 43°F , 6°C
Humidity: 26%
Barometer: 29.86 inHg , 1011.2 hPa
Clouds: Clear
Visibility: 10 miles , 16 km
2019/10/21 20:35 KT20 212035Z AUTO 01007KT 330V030 10SM CLR 27/06 A2986 RMK AO2 T02740059
KRYW - Lago Vista, Texas, USA
Distance from station: NW 42mi, 67km
Updated: Mon, 21-Oct-2019 3:35pm CDT
Clear
Clear
 Wind from NNE
Wind: NNE 6 mph , 9 km/h
Temperature: 75°F , 24°C
Dew Point: 34°F , 1°C
Humidity: 22%
Barometer: 29.92 inHg , 1013.2 hPa
Clouds: Clear
Visibility: 10 miles , 16 km
2019/10/21 20:35 KRYW 212035Z AUTO 03005KT 10SM CLR 24/01 A2992 RMK AO2 T02390009
 
KGTU - Georgetown, Texas, USA
Distance from station: NNW 42mi, 68km
Updated: Mon, 21-Oct-2019 2:56pm CDT
Clear
Clear
 Wind from N
Wind: N 9 mph , 15 km/h
Temperature: 77°F , 25°C
Dew Point: 32°F , 0°C
Humidity: 19%
Barometer: 29.93 inHg , 1013.5 hPa
Clouds: Clear
Visibility: 10 miles , 16 km
2019/10/21 19:56 KGTU 211956Z 35008KT 10SM CLR 25/00 A2993 RMK AO2 SLP129 T02500000
KBAZ - New Braunfels, Texas, USA
Distance from station: SW 46mi, 74km
Updated: Mon, 21-Oct-2019 2:51pm CDT
Clear
Clear
 Wind from ENE
Wind: ENE 13 mph , 20 km/h
Temperature: 81°F , 27°C
Dew Point: 34°F , 1°C
Humidity: 18%
Barometer: 29.87 inHg , 1011.5 hPa
Clouds: Clear
Visibility: 10 miles , 16 km
2019/10/21 19:51 KBAZ 211951Z 06011KT 10SM CLR 27/01 A2987 RMK AO2 SLP107 T02720006